Osg Courageous — WDF7122 — position and weather

sailwx.info

Track history (hours):
 
Tides and Currents Weather Stations Pressure Air Temp Water Temp Dewpoint Dewpoint Depression Visibility Wind Speed Wind Dir Waves Ship Positions

Osg Courageous

Owner: OSG Ship Management, Inc, Tampa, FL. More information available from US FCC via Universal Licensing System and Coast Guard Vessel Documentation Center.

Last reported at 2016-May-01 22:28 UTC. Time now 2016-May-02 01:27 UTC.
Position N 31°35' W 080°09'.

Length 187 m; draft 7 m.

Type: Tanker. MMSI: 367481310.

Date/timePositionNaut miles runAvg speedWind from/ knotsBaromVisibWave heightAir tempDewpointWater temp
2016-May-01 22:28N 31°35' W 080°09'102 2.4
2016-Apr-30 04:15N 30°25' W 081°35'6 7.3
2016-Apr-30 03:27N 30°24' W 081°29'215 8.2
2016-Apr-29 01:09N 27°06' W 079°53'915.4
2016-Apr-29 00:33N 26°57' W 079°54'1614.8
2016-Apr-28 23:30N 26°41' W 079°57'1213.1
2016-Apr-28 22:33N 26°29' W 079°59'1111.4
2016-Apr-28 21:33N 26°18' W 079°59'1211.7
2016-Apr-28 20:33N 26°06' W 080°00'1312.7
2016-Apr-28 19:33N 25°53' W 079°60'1514.5
2016-Apr-28 18:34N 25°39' W 080°00'  
2016-Apr-26 01:04N 29°44' W 089°60'611.1
2016-Apr-26 00:33N 29°50' W 089°60'6 5.8
2016-Apr-25 23:33N 29°55' W 089°58'9 9.1
2016-Apr-25 22:33N 29°56' W 090°08'3 0.1
2016-Apr-24 00:13N 29°56' W 090°12'3 4.6
2016-Apr-23 23:33N 29°55' W 090°08'6 5.8
2016-Apr-23 22:33N 29°57' W 090°02'0 0.4
2016-Apr-23 21:31N 29°57' W 090°02'0 0.0
2016-Apr-23 20:31N 29°57' W 090°02'0 0.0
2016-Apr-23 19:31N 29°57' W 090°02'0 0.0
2016-Apr-23 18:31N 29°57' W 090°02'0 0.0
2016-Apr-23 17:31N 29°57' W 090°02'0 0.0
2016-Apr-23 16:31N 29°57' W 090°02'0 0.0
2016-Apr-23 15:31N 29°57' W 090°02'0 0.0
2016-Apr-23 14:31N 29°57' W 090°02'0 0.0
2016-Apr-23 13:31N 29°57' W 090°02'0 0.0
2016-Apr-23 12:31N 29°57' W 090°02'0 0.0
2016-Apr-23 11:31N 29°57' W 090°02'2 1.8
2016-Apr-23 10:34N 29°56' W 089°60'5 5.2
2016-Apr-23 09:33N 29°52' W 089°56'7 6.9
2016-Apr-23 08:34N 29°47' W 090°01'  
Track history (hours):
 
Tides and Currents Weather Stations Pressure Air Temp Water Temp Dewpoint Dewpoint Depression Visibility Wind Speed Wind Dir Waves Ship Positions

Osg Courageous

Owner: OSG Ship Management, Inc, Tampa, FL. More information available from US FCC via Universal Licensing System and Coast Guard Vessel Documentation Center.

Last reported at 2016-May-01 22:28 UTC. Time now 2016-May-02 01:27 UTC.
Position N 31°35' W 080°09'.

Length 187 m; draft 7 m.

Type: Tanker. MMSI: 367481310.

Date/timePositionNaut miles runAvg speedWind from/ knotsBaromVisibWave heightAir tempDewpointWater temp
2016-May-01 22:28N 31°35' W 080°09'102 2.4
2016-Apr-30 04:15N 30°25' W 081°35'6 7.3
2016-Apr-30 03:27N 30°24' W 081°29'215 8.2
2016-Apr-29 01:09N 27°06' W 079°53'915.4
2016-Apr-29 00:33N 26°57' W 079°54'1614.8
2016-Apr-28 23:30N 26°41' W 079°57'1213.1
2016-Apr-28 22:33N 26°29' W 079°59'1111.4
2016-Apr-28 21:33N 26°18' W 079°59'1211.7
2016-Apr-28 20:33N 26°06' W 080°00'1312.7
2016-Apr-28 19:33N 25°53' W 079°60'1514.5
2016-Apr-28 18:34N 25°39' W 080°00'  
2016-Apr-26 01:04N 29°44' W 089°60'611.1
2016-Apr-26 00:33N 29°50' W 089°60'6 5.8
2016-Apr-25 23:33N 29°55' W 089°58'9 9.1
2016-Apr-25 22:33N 29°56' W 090°08'3 0.1
2016-Apr-24 00:13N 29°56' W 090°12'3 4.6
2016-Apr-23 23:33N 29°55' W 090°08'6 5.8
2016-Apr-23 22:33N 29°57' W 090°02'0 0.4
2016-Apr-23 21:31N 29°57' W 090°02'0 0.0
2016-Apr-23 20:31N 29°57' W 090°02'0 0.0
2016-Apr-23 19:31N 29°57' W 090°02'0 0.0
2016-Apr-23 18:31N 29°57' W 090°02'0 0.0
2016-Apr-23 17:31N 29°57' W 090°02'0 0.0
2016-Apr-23 16:31N 29°57' W 090°02'0 0.0
2016-Apr-23 15:31N 29°57' W 090°02'0 0.0
2016-Apr-23 14:31N 29°57' W 090°02'0 0.0
2016-Apr-23 13:31N 29°57' W 090°02'0 0.0
2016-Apr-23 12:31N 29°57' W 090°02'0 0.0
2016-Apr-23 11:31N 29°57' W 090°02'2 1.8
2016-Apr-23 10:34N 29°56' W 089°60'5 5.2
2016-Apr-23 09:33N 29°52' W 089°56'7 6.9
2016-Apr-23 08:34N 29°47' W 090°01'  

Dump ship's entire track history